sensor_id;sensor_type;location;lat;lon;timestamp;P1;durP1;ratioP1;P2;durP2;ratioP2
4810;SDS011;2419;51.276;6.472;2024-01-30T00:00:24;18.63;;;8.97;;
4810;SDS011;2419;51.276;6.472;2024-01-30T00:02:54;15.23;;;7.93;;
4810;SDS011;2419;51.276;6.472;2024-01-30T00:05:22;15.70;;;8.47;;
4810;SDS011;2419;51.276;6.472;2024-01-30T00:07:50;15.30;;;8.50;;
4810;SDS011;2419;51.276;6.472;2024-01-30T00:10:18;14.37;;;9.07;;
4810;SDS011;2419;51.276;6.472;2024-01-30T00:12:47;15.10;;;9.63;;
4810;SDS011;2419;51.276;6.472;2024-01-30T00:15:15;15.37;;;9.37;;
4810;SDS011;2419;51.276;6.472;2024-01-30T00:17:43;16.87;;;9.70;;
4810;SDS011;2419;51.276;6.472;2024-01-30T00:20:12;17.50;;;10.40;;
4810;SDS011;2419;51.276;6.472;2024-01-30T00:22:40;17.00;;;10.10;;
4810;SDS011;2419;51.276;6.472;2024-01-30T00:25:09;16.17;;;9.47;;
4810;SDS011;2419;51.276;6.472;2024-01-30T00:27:37;19.10;;;12.03;;
4810;SDS011;2419;51.276;6.472;2024-01-30T00:30:05;18.37;;;10.20;;
4810;SDS011;2419;51.276;6.472;2024-01-30T00:32:34;13.00;;;9.23;;
4810;SDS011;2419;51.276;6.472;2024-01-30T00:35:02;20.17;;;11.07;;
4810;SDS011;2419;51.276;6.472;2024-01-30T00:37:32;18.70;;;10.17;;
4810;SDS011;2419;51.276;6.472;2024-01-30T00:40:00;17.33;;;9.57;;
4810;SDS011;2419;51.276;6.472;2024-01-30T00:42:28;17.93;;;9.47;;
4810;SDS011;2419;51.276;6.472;2024-01-30T00:44:56;18.27;;;9.33;;
4810;SDS011;2419;51.276;6.472;2024-01-30T00:47:25;12.33;;;8.10;;
4810;SDS011;2419;51.276;6.472;2024-01-30T00:49:53;17.00;;;9.03;;
4810;SDS011;2419;51.276;6.472;2024-01-30T00:52:21;19.43;;;9.20;;
4810;SDS011;2419;51.276;6.472;2024-01-30T00:54:50;21.60;;;8.83;;
4810;SDS011;2419;51.276;6.472;2024-01-30T00:57:18;15.37;;;10.07;;
4810;SDS011;2419;51.276;6.472;2024-01-30T00:59:46;16.20;;;9.57;;
4810;SDS011;2419;51.276;6.472;2024-01-30T01:02:14;13.43;;;8.87;;
4810;SDS011;2419;51.276;6.472;2024-01-30T01:04:44;15.20;;;8.60;;
4810;SDS011;2419;51.276;6.472;2024-01-30T01:07:12;16.67;;;9.00;;
4810;SDS011;2419;51.276;6.472;2024-01-30T01:09:40;15.13;;;8.30;;
4810;SDS011;2419;51.276;6.472;2024-01-30T01:12:10;18.80;;;9.47;;
4810;SDS011;2419;51.276;6.472;2024-01-30T01:14:38;21.87;;;9.07;;
4810;SDS011;2419;51.276;6.472;2024-01-30T01:17:06;15.40;;;8.80;;
4810;SDS011;2419;51.276;6.472;2024-01-30T01:19:34;15.97;;;8.90;;
4810;SDS011;2419;51.276;6.472;2024-01-30T01:22:02;17.00;;;9.47;;
4810;SDS011;2419;51.276;6.472;2024-01-30T01:24:30;14.00;;;8.77;;
4810;SDS011;2419;51.276;6.472;2024-01-30T01:26:58;18.50;;;8.80;;
4810;SDS011;2419;51.276;6.472;2024-01-30T01:29:28;18.90;;;10.43;;
4810;SDS011;2419;51.276;6.472;2024-01-30T01:31:56;17.93;;;9.23;;
4810;SDS011;2419;51.276;6.472;2024-01-30T01:34:25;16.13;;;8.57;;
4810;SDS011;2419;51.276;6.472;2024-01-30T01:36:56;14.57;;;9.60;;
4810;SDS011;2419;51.276;6.472;2024-01-30T01:39:24;19.40;;;9.77;;
4810;SDS011;2419;51.276;6.472;2024-01-30T01:41:52;15.40;;;8.80;;
4810;SDS011;2419;51.276;6.472;2024-01-30T01:44:20;16.40;;;8.77;;
4810;SDS011;2419;51.276;6.472;2024-01-30T01:46:49;15.73;;;8.87;;
4810;SDS011;2419;51.276;6.472;2024-01-30T01:49:20;17.23;;;9.23;;
4810;SDS011;2419;51.276;6.472;2024-01-30T01:51:48;13.23;;;8.27;;
4810;SDS011;2419;51.276;6.472;2024-01-30T01:54:18;16.10;;;8.60;;
4810;SDS011;2419;51.276;6.472;2024-01-30T01:56:47;17.73;;;9.03;;
4810;SDS011;2419;51.276;6.472;2024-01-30T01:59:15;14.07;;;7.93;;
4810;SDS011;2419;51.276;6.472;2024-01-30T02:01:43;16.23;;;8.40;;
4810;SDS011;2419;51.276;6.472;2024-01-30T02:04:16;18.13;;;10.20;;
4810;SDS011;2419;51.276;6.472;2024-01-30T02:06:44;14.97;;;8.10;;
4810;SDS011;2419;51.276;6.472;2024-01-30T02:09:13;18.13;;;8.43;;
4810;SDS011;2419;51.276;6.472;2024-01-30T02:11:42;15.10;;;9.07;;
4810;SDS011;2419;51.276;6.472;2024-01-30T02:14:10;19.90;;;8.57;;
4810;SDS011;2419;51.276;6.472;2024-01-30T02:16:38;17.00;;;8.43;;
4810;SDS011;2419;51.276;6.472;2024-01-30T02:19:07;15.30;;;8.60;;
4810;SDS011;2419;51.276;6.472;2024-01-30T02:21:37;15.17;;;8.37;;
4810;SDS011;2419;51.276;6.472;2024-01-30T02:24:05;16.37;;;8.70;;
4810;SDS011;2419;51.276;6.472;2024-01-30T02:26:33;14.70;;;9.27;;
4810;SDS011;2419;51.276;6.472;2024-01-30T02:29:01;16.70;;;8.77;;
4810;SDS011;2419;51.276;6.472;2024-01-30T02:31:29;16.30;;;8.80;;
4810;SDS011;2419;51.276;6.472;2024-01-30T02:33:57;15.33;;;8.50;;
4810;SDS011;2419;51.276;6.472;2024-01-30T02:36:26;13.47;;;8.80;;
4810;SDS011;2419;51.276;6.472;2024-01-30T02:38:55;12.17;;;8.60;;
4810;SDS011;2419;51.276;6.472;2024-01-30T02:41:23;14.37;;;8.13;;
4810;SDS011;2419;51.276;6.472;2024-01-30T02:43:51;15.13;;;7.13;;
4810;SDS011;2419;51.276;6.472;2024-01-30T02:46:19;14.70;;;8.87;;
4810;SDS011;2419;51.276;6.472;2024-01-30T02:48:47;17.33;;;8.70;;
4810;SDS011;2419;51.276;6.472;2024-01-30T02:51:16;14.43;;;8.40;;
4810;SDS011;2419;51.276;6.472;2024-01-30T02:53:44;14.60;;;9.47;;
4810;SDS011;2419;51.276;6.472;2024-01-30T02:56:13;19.50;;;9.67;;
4810;SDS011;2419;51.276;6.472;2024-01-30T02:58:41;19.47;;;8.80;;
4810;SDS011;2419;51.276;6.472;2024-01-30T03:01:09;30.80;;;9.03;;
4810;SDS011;2419;51.276;6.472;2024-01-30T03:03:37;16.90;;;9.63;;
4810;SDS011;2419;51.276;6.472;2024-01-30T03:06:07;11.73;;;7.80;;
4810;SDS011;2419;51.276;6.472;2024-01-30T03:08:35;21.27;;;9.80;;
4810;SDS011;2419;51.276;6.472;2024-01-30T03:11:03;18.47;;;8.93;;
4810;SDS011;2419;51.276;6.472;2024-01-30T03:13:33;15.33;;;8.77;;
4810;SDS011;2419;51.276;6.472;2024-01-30T03:16:01;12.47;;;8.73;;
4810;SDS011;2419;51.276;6.472;2024-01-30T03:18:29;19.13;;;9.00;;
4810;SDS011;2419;51.276;6.472;2024-01-30T03:20:57;16.10;;;9.53;;
4810;SDS011;2419;51.276;6.472;2024-01-30T03:23:25;15.40;;;8.77;;
4810;SDS011;2419;51.276;6.472;2024-01-30T03:25:53;15.57;;;9.20;;
4810;SDS011;2419;51.276;6.472;2024-01-30T03:28:21;14.93;;;8.60;;
4810;SDS011;2419;51.276;6.472;2024-01-30T03:30:51;16.30;;;9.47;;
4810;SDS011;2419;51.276;6.472;2024-01-30T03:33:19;14.20;;;8.43;;
4810;SDS011;2419;51.276;6.472;2024-01-30T03:35:47;15.97;;;8.47;;
4810;SDS011;2419;51.276;6.472;2024-01-30T03:38:15;13.43;;;8.47;;
4810;SDS011;2419;51.276;6.472;2024-01-30T03:40:43;13.13;;;9.00;;
4810;SDS011;2419;51.276;6.472;2024-01-30T03:43:11;19.40;;;8.90;;
4810;SDS011;2419;51.276;6.472;2024-01-30T03:45:39;15.73;;;8.87;;
4810;SDS011;2419;51.276;6.472;2024-01-30T03:48:09;16.60;;;8.80;;
4810;SDS011;2419;51.276;6.472;2024-01-30T03:50:37;16.83;;;10.40;;
4810;SDS011;2419;51.276;6.472;2024-01-30T03:53:05;14.40;;;8.93;;
4810;SDS011;2419;51.276;6.472;2024-01-30T03:55:33;14.63;;;8.43;;
4810;SDS011;2419;51.276;6.472;2024-01-30T03:58:01;11.80;;;7.43;;
4810;SDS011;2419;51.276;6.472;2024-01-30T04:00:29;12.70;;;7.83;;
4810;SDS011;2419;51.276;6.472;2024-01-30T04:02:57;14.60;;;8.73;;
4810;SDS011;2419;51.276;6.472;2024-01-30T04:05:27;13.30;;;8.30;;
4810;SDS011;2419;51.276;6.472;2024-01-30T04:07:55;16.30;;;9.20;;
4810;SDS011;2419;51.276;6.472;2024-01-30T04:10:23;14.33;;;8.20;;
4810;SDS011;2419;51.276;6.472;2024-01-30T04:12:52;12.83;;;7.67;;
4810;SDS011;2419;51.276;6.472;2024-01-30T04:15:20;13.90;;;8.73;;
4810;SDS011;2419;51.276;6.472;2024-01-30T04:17:48;14.27;;;8.83;;
4810;SDS011;2419;51.276;6.472;2024-01-30T04:20:16;12.23;;;7.83;;
4810;SDS011;2419;51.276;6.472;2024-01-30T04:22:46;13.97;;;9.30;;
4810;SDS011;2419;51.276;6.472;2024-01-30T04:25:14;14.30;;;8.30;;
4810;SDS011;2419;51.276;6.472;2024-01-30T04:27:42;15.13;;;9.10;;
4810;SDS011;2419;51.276;6.472;2024-01-30T04:30:11;14.70;;;8.73;;
4810;SDS011;2419;51.276;6.472;2024-01-30T04:32:39;22.77;;;8.20;;
4810;SDS011;2419;51.276;6.472;2024-01-30T04:35:07;15.83;;;8.80;;
4810;SDS011;2419;51.276;6.472;2024-01-30T04:37:37;11.53;;;7.70;;
4810;SDS011;2419;51.276;6.472;2024-01-30T04:40:07;14.03;;;8.40;;
4810;SDS011;2419;51.276;6.472;2024-01-30T04:42:36;15.93;;;8.87;;
4810;SDS011;2419;51.276;6.472;2024-01-30T04:45:05;16.00;;;9.13;;
4810;SDS011;2419;51.276;6.472;2024-01-30T04:47:34;16.83;;;9.37;;
4810;SDS011;2419;51.276;6.472;2024-01-30T04:50:02;16.30;;;9.37;;
4810;SDS011;2419;51.276;6.472;2024-01-30T04:52:31;14.30;;;9.27;;
4810;SDS011;2419;51.276;6.472;2024-01-30T04:54:59;14.87;;;8.70;;
4810;SDS011;2419;51.276;6.472;2024-01-30T04:57:29;15.17;;;8.60;;
4810;SDS011;2419;51.276;6.472;2024-01-30T04:59:58;14.43;;;8.77;;
4810;SDS011;2419;51.276;6.472;2024-01-30T05:02:26;16.53;;;9.37;;
4810;SDS011;2419;51.276;6.472;2024-01-30T05:04:54;15.40;;;9.17;;
4810;SDS011;2419;51.276;6.472;2024-01-30T05:07:24;16.30;;;9.10;;
4810;SDS011;2419;51.276;6.472;2024-01-30T05:09:52;14.10;;;8.70;;
4810;SDS011;2419;51.276;6.472;2024-01-30T05:12:24;16.73;;;9.67;;
4810;SDS011;2419;51.276;6.472;2024-01-30T05:14:54;22.00;;;9.37;;
4810;SDS011;2419;51.276;6.472;2024-01-30T05:17:22;17.43;;;9.43;;
4810;SDS011;2419;51.276;6.472;2024-01-30T05:19:50;15.73;;;9.57;;
4810;SDS011;2419;51.276;6.472;2024-01-30T05:22:18;13.57;;;8.70;;
4810;SDS011;2419;51.276;6.472;2024-01-30T05:24:46;18.73;;;8.50;;
4810;SDS011;2419;51.276;6.472;2024-01-30T05:27:14;15.20;;;8.60;;
4810;SDS011;2419;51.276;6.472;2024-01-30T05:29:43;18.67;;;9.43;;
4810;SDS011;2419;51.276;6.472;2024-01-30T05:32:13;17.90;;;8.27;;
4810;SDS011;2419;51.276;6.472;2024-01-30T05:34:41;15.40;;;9.43;;
4810;SDS011;2419;51.276;6.472;2024-01-30T05:37:09;17.83;;;9.70;;
4810;SDS011;2419;51.276;6.472;2024-01-30T05:39:40;19.43;;;9.53;;
4810;SDS011;2419;51.276;6.472;2024-01-30T05:42:09;15.37;;;9.20;;
4810;SDS011;2419;51.276;6.472;2024-01-30T05:44:37;14.13;;;8.70;;
4810;SDS011;2419;51.276;6.472;2024-01-30T05:47:05;16.90;;;9.57;;
4810;SDS011;2419;51.276;6.472;2024-01-30T05:49:34;14.50;;;9.13;;
4810;SDS011;2419;51.276;6.472;2024-01-30T05:52:03;19.43;;;9.77;;
4810;SDS011;2419;51.276;6.472;2024-01-30T05:54:32;15.70;;;10.17;;
4810;SDS011;2419;51.276;6.472;2024-01-30T05:57:00;16.20;;;9.87;;
4810;SDS011;2419;51.276;6.472;2024-01-30T05:59:28;16.00;;;9.63;;
4810;SDS011;2419;51.276;6.472;2024-01-30T06:01:56;17.30;;;9.57;;
4810;SDS011;2419;51.276;6.472;2024-01-30T06:04:24;17.63;;;9.57;;
4810;SDS011;2419;51.276;6.472;2024-01-30T06:06:54;14.20;;;8.87;;
4810;SDS011;2419;51.276;6.472;2024-01-30T06:09:22;18.17;;;9.30;;
4810;SDS011;2419;51.276;6.472;2024-01-30T06:11:50;14.03;;;8.63;;
4810;SDS011;2419;51.276;6.472;2024-01-30T06:14:18;17.93;;;9.83;;
4810;SDS011;2419;51.276;6.472;2024-01-30T06:16:46;13.50;;;9.10;;
4810;SDS011;2419;51.276;6.472;2024-01-30T06:19:14;14.67;;;9.13;;
4810;SDS011;2419;51.276;6.472;2024-01-30T06:21:42;19.40;;;8.87;;
4810;SDS011;2419;51.276;6.472;2024-01-30T06:24:12;18.73;;;9.00;;
4810;SDS011;2419;51.276;6.472;2024-01-30T06:26:40;16.70;;;9.10;;
4810;SDS011;2419;51.276;6.472;2024-01-30T06:29:08;16.30;;;8.63;;
4810;SDS011;2419;51.276;6.472;2024-01-30T06:31:39;16.00;;;8.57;;
4810;SDS011;2419;51.276;6.472;2024-01-30T06:34:08;16.80;;;8.77;;
4810;SDS011;2419;51.276;6.472;2024-01-30T06:36:37;18.73;;;9.13;;
4810;SDS011;2419;51.276;6.472;2024-01-30T06:39:06;18.33;;;9.37;;
4810;SDS011;2419;51.276;6.472;2024-01-30T06:41:35;26.40;;;8.33;;
4810;SDS011;2419;51.276;6.472;2024-01-30T06:44:03;14.67;;;8.70;;
4810;SDS011;2419;51.276;6.472;2024-01-30T06:46:32;16.30;;;8.60;;
4810;SDS011;2419;51.276;6.472;2024-01-30T06:49:01;13.67;;;8.87;;
4810;SDS011;2419;51.276;6.472;2024-01-30T06:51:29;16.63;;;8.70;;
4810;SDS011;2419;51.276;6.472;2024-01-30T06:53:57;15.20;;;8.80;;
4810;SDS011;2419;51.276;6.472;2024-01-30T06:56:25;14.93;;;8.50;;
4810;SDS011;2419;51.276;6.472;2024-01-30T06:58:54;18.07;;;9.57;;
4810;SDS011;2419;51.276;6.472;2024-01-30T07:01:27;16.70;;;8.20;;
4810;SDS011;2419;51.276;6.472;2024-01-30T07:03:56;13.90;;;9.10;;
4810;SDS011;2419;51.276;6.472;2024-01-30T07:06:25;15.77;;;8.77;;
4810;SDS011;2419;51.276;6.472;2024-01-30T07:08:53;15.07;;;8.90;;
4810;SDS011;2419;51.276;6.472;2024-01-30T07:11:21;11.73;;;6.80;;
4810;SDS011;2419;51.276;6.472;2024-01-30T07:13:50;17.33;;;8.77;;
4810;SDS011;2419;51.276;6.472;2024-01-30T07:16:20;16.33;;;8.50;;
4810;SDS011;2419;51.276;6.472;2024-01-30T07:18:48;16.57;;;9.13;;
4810;SDS011;2419;51.276;6.472;2024-01-30T07:21:17;11.93;;;7.70;;
4810;SDS011;2419;51.276;6.472;2024-01-30T07:23:45;11.70;;;7.23;;
4810;SDS011;2419;51.276;6.472;2024-01-30T07:26:13;14.30;;;8.53;;
4810;SDS011;2419;51.276;6.472;2024-01-30T07:28:41;14.60;;;8.80;;
4810;SDS011;2419;51.276;6.472;2024-01-30T07:31:11;14.07;;;8.60;;
4810;SDS011;2419;51.276;6.472;2024-01-30T07:33:41;17.70;;;9.00;;
4810;SDS011;2419;51.276;6.472;2024-01-30T07:36:09;20.27;;;8.87;;
4810;SDS011;2419;51.276;6.472;2024-01-30T07:38:37;18.07;;;7.77;;
4810;SDS011;2419;51.276;6.472;2024-01-30T07:41:06;12.80;;;7.60;;
4810;SDS011;2419;51.276;6.472;2024-01-30T07:43:34;13.10;;;7.90;;
4810;SDS011;2419;51.276;6.472;2024-01-30T07:46:02;18.90;;;9.43;;
4810;SDS011;2419;51.276;6.472;2024-01-30T07:48:32;18.30;;;8.20;;
4810;SDS011;2419;51.276;6.472;2024-01-30T07:51:02;12.57;;;7.97;;
4810;SDS011;2419;51.276;6.472;2024-01-30T07:53:30;10.93;;;7.57;;
4810;SDS011;2419;51.276;6.472;2024-01-30T07:55:58;11.93;;;8.47;;
4810;SDS011;2419;51.276;6.472;2024-01-30T07:58:26;13.43;;;8.03;;
4810;SDS011;2419;51.276;6.472;2024-01-30T08:00:55;15.23;;;8.23;;
4810;SDS011;2419;51.276;6.472;2024-01-30T08:03:25;12.73;;;7.57;;
4810;SDS011;2419;51.276;6.472;2024-01-30T08:05:53;9.40;;;7.00;;
4810;SDS011;2419;51.276;6.472;2024-01-30T08:08:23;13.63;;;8.10;;
4810;SDS011;2419;51.276;6.472;2024-01-30T08:10:52;22.10;;;8.40;;
4810;SDS011;2419;51.276;6.472;2024-01-30T08:13:20;11.67;;;8.10;;
4810;SDS011;2419;51.276;6.472;2024-01-30T08:15:48;12.77;;;8.47;;
4810;SDS011;2419;51.276;6.472;2024-01-30T08:18:16;13.00;;;8.00;;
4810;SDS011;2419;51.276;6.472;2024-01-30T08:20:44;11.63;;;7.43;;
4810;SDS011;2419;51.276;6.472;2024-01-30T08:23:12;12.03;;;7.57;;
4810;SDS011;2419;51.276;6.472;2024-01-30T08:25:41;14.10;;;7.70;;
4810;SDS011;2419;51.276;6.472;2024-01-30T08:28:09;13.03;;;7.63;;
4810;SDS011;2419;51.276;6.472;2024-01-30T08:30:38;13.57;;;8.40;;
4810;SDS011;2419;51.276;6.472;2024-01-30T08:33:06;11.87;;;7.27;;
4810;SDS011;2419;51.276;6.472;2024-01-30T08:35:34;11.50;;;7.57;;
4810;SDS011;2419;51.276;6.472;2024-01-30T08:38:02;18.20;;;9.40;;
4810;SDS011;2419;51.276;6.472;2024-01-30T08:40:31;11.80;;;7.97;;
4810;SDS011;2419;51.276;6.472;2024-01-30T08:43:00;15.30;;;8.17;;
4810;SDS011;2419;51.276;6.472;2024-01-30T08:45:29;12.60;;;7.70;;
4810;SDS011;2419;51.276;6.472;2024-01-30T08:47:57;11.50;;;7.50;;
4810;SDS011;2419;51.276;6.472;2024-01-30T08:50:25;15.80;;;7.63;;
4810;SDS011;2419;51.276;6.472;2024-01-30T08:52:54;15.63;;;8.10;;
4810;SDS011;2419;51.276;6.472;2024-01-30T08:55:23;12.37;;;7.93;;
4810;SDS011;2419;51.276;6.472;2024-01-30T08:57:51;13.60;;;7.40;;
4810;SDS011;2419;51.276;6.472;2024-01-30T09:00:21;16.17;;;8.50;;
4810;SDS011;2419;51.276;6.472;2024-01-30T09:02:49;13.87;;;8.13;;
4810;SDS011;2419;51.276;6.472;2024-01-30T09:05:17;18.07;;;7.07;;
4810;SDS011;2419;51.276;6.472;2024-01-30T09:07:45;14.67;;;8.03;;
4810;SDS011;2419;51.276;6.472;2024-01-30T09:10:13;13.87;;;8.03;;
4810;SDS011;2419;51.276;6.472;2024-01-30T09:12:46;14.10;;;7.60;;
4810;SDS011;2419;51.276;6.472;2024-01-30T09:15:14;15.63;;;8.50;;
4810;SDS011;2419;51.276;6.472;2024-01-30T09:17:44;12.80;;;7.60;;
4810;SDS011;2419;51.276;6.472;2024-01-30T09:20:12;17.67;;;8.63;;
4810;SDS011;2419;51.276;6.472;2024-01-30T09:22:40;12.30;;;8.60;;
4810;SDS011;2419;51.276;6.472;2024-01-30T09:25:08;15.57;;;8.40;;
4810;SDS011;2419;51.276;6.472;2024-01-30T09:27:36;20.83;;;7.70;;
4810;SDS011;2419;51.276;6.472;2024-01-30T09:30:05;11.87;;;7.87;;
4810;SDS011;2419;51.276;6.472;2024-01-30T09:32:34;14.40;;;7.97;;
4810;SDS011;2419;51.276;6.472;2024-01-30T09:35:04;15.27;;;8.47;;
4810;SDS011;2419;51.276;6.472;2024-01-30T09:37:32;13.50;;;7.93;;
4810;SDS011;2419;51.276;6.472;2024-01-30T09:40:01;13.90;;;7.90;;
4810;SDS011;2419;51.276;6.472;2024-01-30T09:42:33;12.93;;;8.10;;
4810;SDS011;2419;51.276;6.472;2024-01-30T09:45:02;12.60;;;8.03;;
4810;SDS011;2419;51.276;6.472;2024-01-30T09:47:31;13.67;;;7.30;;
4810;SDS011;2419;51.276;6.472;2024-01-30T09:50:00;13.90;;;8.27;;
4810;SDS011;2419;51.276;6.472;2024-01-30T09:52:33;12.60;;;7.87;;
4810;SDS011;2419;51.276;6.472;2024-01-30T09:55:02;18.40;;;9.40;;
4810;SDS011;2419;51.276;6.472;2024-01-30T09:57:31;13.33;;;8.60;;
4810;SDS011;2419;51.276;6.472;2024-01-30T09:59:59;10.90;;;7.23;;
4810;SDS011;2419;51.276;6.472;2024-01-30T10:02:37;14.00;;;8.17;;
4810;SDS011;2419;51.276;6.472;2024-01-30T10:05:07;16.53;;;8.00;;
4810;SDS011;2419;51.276;6.472;2024-01-30T10:07:37;10.90;;;7.93;;
4810;SDS011;2419;51.276;6.472;2024-01-30T10:10:05;13.73;;;7.53;;
4810;SDS011;2419;51.276;6.472;2024-01-30T10:12:34;16.43;;;7.30;;
4810;SDS011;2419;51.276;6.472;2024-01-30T10:15:02;14.47;;;7.40;;
4810;SDS011;2419;51.276;6.472;2024-01-30T10:17:37;13.37;;;7.80;;
4810;SDS011;2419;51.276;6.472;2024-01-30T10:20:05;17.17;;;8.40;;
4810;SDS011;2419;51.276;6.472;2024-01-30T10:22:35;12.70;;;7.40;;
4810;SDS011;2419;51.276;6.472;2024-01-30T10:25:05;13.30;;;7.30;;
4810;SDS011;2419;51.276;6.472;2024-01-30T10:27:34;12.13;;;8.37;;
4810;SDS011;2419;51.276;6.472;2024-01-30T10:30:02;13.57;;;7.50;;
4810;SDS011;2419;51.276;6.472;2024-01-30T10:32:30;13.03;;;8.87;;
4810;SDS011;2419;51.276;6.472;2024-01-30T10:34:59;13.73;;;7.80;;
4810;SDS011;2419;51.276;6.472;2024-01-30T10:37:27;15.67;;;7.53;;
4810;SDS011;2419;51.276;6.472;2024-01-30T10:40:00;16.43;;;9.40;;
4810;SDS011;2419;51.276;6.472;2024-01-30T10:42:32;15.10;;;8.00;;
4810;SDS011;2419;51.276;6.472;2024-01-30T10:45:05;14.33;;;8.43;;
4810;SDS011;2419;51.276;6.472;2024-01-30T10:47:35;9.03;;;6.97;;
4810;SDS011;2419;51.276;6.472;2024-01-30T10:50:04;12.73;;;7.77;;
4810;SDS011;2419;51.276;6.472;2024-01-30T10:52:34;10.73;;;7.33;;
4810;SDS011;2419;51.276;6.472;2024-01-30T10:55:04;13.23;;;7.87;;
4810;SDS011;2419;51.276;6.472;2024-01-30T10:57:35;21.60;;;7.77;;
4810;SDS011;2419;51.276;6.472;2024-01-30T11:00:04;16.50;;;8.70;;
4810;SDS011;2419;51.276;6.472;2024-01-30T11:02:37;15.53;;;7.50;;
4810;SDS011;2419;51.276;6.472;2024-01-30T11:05:07;15.40;;;7.90;;
4810;SDS011;2419;51.276;6.472;2024-01-30T11:07:36;14.73;;;8.37;;
4810;SDS011;2419;51.276;6.472;2024-01-30T11:10:07;13.83;;;8.07;;
4810;SDS011;2419;51.276;6.472;2024-01-30T11:12:40;14.73;;;8.00;;
4810;SDS011;2419;51.276;6.472;2024-01-30T11:15:12;17.50;;;8.00;;
4810;SDS011;2419;51.276;6.472;2024-01-30T11:17:44;11.57;;;7.23;;
4810;SDS011;2419;51.276;6.472;2024-01-30T11:20:19;19.10;;;7.57;;
4810;SDS011;2419;51.276;6.472;2024-01-30T11:22:49;15.33;;;7.30;;
4810;SDS011;2419;51.276;6.472;2024-01-30T11:25:19;16.70;;;8.27;;
4810;SDS011;2419;51.276;6.472;2024-01-30T11:27:50;14.90;;;7.40;;
4810;SDS011;2419;51.276;6.472;2024-01-30T11:30:22;12.10;;;7.50;;
4810;SDS011;2419;51.276;6.472;2024-01-30T11:33:00;13.50;;;7.30;;
4810;SDS011;2419;51.276;6.472;2024-01-30T11:35:32;12.73;;;7.80;;
4810;SDS011;2419;51.276;6.472;2024-01-30T11:38:02;11.00;;;7.77;;
4810;SDS011;2419;51.276;6.472;2024-01-30T11:40:33;17.87;;;8.00;;
4810;SDS011;2419;51.276;6.472;2024-01-30T11:43:04;15.90;;;6.60;;
4810;SDS011;2419;51.276;6.472;2024-01-30T11:45:34;9.17;;;5.93;;
4810;SDS011;2419;51.276;6.472;2024-01-30T11:48:03;9.10;;;6.03;;
4810;SDS011;2419;51.276;6.472;2024-01-30T11:50:32;17.10;;;7.40;;
4810;SDS011;2419;51.276;6.472;2024-01-30T11:53:01;6.87;;;4.73;;
4810;SDS011;2419;51.276;6.472;2024-01-30T11:55:30;9.03;;;5.23;;
4810;SDS011;2419;51.276;6.472;2024-01-30T11:58:01;11.17;;;5.63;;
4810;SDS011;2419;51.276;6.472;2024-01-30T12:00:32;8.70;;;5.53;;
4810;SDS011;2419;51.276;6.472;2024-01-30T12:03:02;12.90;;;4.90;;
4810;SDS011;2419;51.276;6.472;2024-01-30T12:05:32;11.03;;;5.10;;
4810;SDS011;2419;51.276;6.472;2024-01-30T12:08:02;11.13;;;5.00;;
4810;SDS011;2419;51.276;6.472;2024-01-30T12:10:30;10.23;;;5.10;;
4810;SDS011;2419;51.276;6.472;2024-01-30T12:12:59;8.80;;;4.60;;
4810;SDS011;2419;51.276;6.472;2024-01-30T12:15:28;11.37;;;5.93;;
4810;SDS011;2419;51.276;6.472;2024-01-30T12:18:04;11.40;;;4.67;;
4810;SDS011;2419;51.276;6.472;2024-01-30T12:20:34;10.43;;;5.33;;
4810;SDS011;2419;51.276;6.472;2024-01-30T12:23:03;9.43;;;5.37;;
4810;SDS011;2419;51.276;6.472;2024-01-30T12:25:31;10.77;;;5.50;;
4810;SDS011;2419;51.276;6.472;2024-01-30T12:27:59;10.90;;;4.60;;
4810;SDS011;2419;51.276;6.472;2024-01-30T12:30:28;12.00;;;4.80;;
4810;SDS011;2419;51.276;6.472;2024-01-30T12:32:56;9.90;;;4.70;;
4810;SDS011;2419;51.276;6.472;2024-01-30T12:35:26;12.03;;;4.73;;
4810;SDS011;2419;51.276;6.472;2024-01-30T12:37:58;12.27;;;5.47;;
4810;SDS011;2419;51.276;6.472;2024-01-30T12:40:26;8.40;;;4.60;;
4810;SDS011;2419;51.276;6.472;2024-01-30T12:42:55;7.23;;;5.07;;
4810;SDS011;2419;51.276;6.472;2024-01-30T12:45:24;8.10;;;4.73;;
4810;SDS011;2419;51.276;6.472;2024-01-30T12:47:53;15.07;;;5.60;;
4810;SDS011;2419;51.276;6.472;2024-01-30T12:50:21;11.40;;;4.97;;
4810;SDS011;2419;51.276;6.472;2024-01-30T12:52:51;11.47;;;5.50;;
4810;SDS011;2419;51.276;6.472;2024-01-30T12:55:19;11.00;;;5.70;;
4810;SDS011;2419;51.276;6.472;2024-01-30T12:57:47;7.10;;;4.60;;
4810;SDS011;2419;51.276;6.472;2024-01-30T13:00:15;12.57;;;5.70;;
4810;SDS011;2419;51.276;6.472;2024-01-30T13:02:44;15.13;;;6.47;;
4810;SDS011;2419;51.276;6.472;2024-01-30T13:05:13;14.73;;;4.90;;
4810;SDS011;2419;51.276;6.472;2024-01-30T13:07:41;10.03;;;5.20;;
4810;SDS011;2419;51.276;6.472;2024-01-30T13:10:10;9.80;;;5.40;;
4810;SDS011;2419;51.276;6.472;2024-01-30T13:12:39;10.77;;;5.63;;
4810;SDS011;2419;51.276;6.472;2024-01-30T13:15:07;11.60;;;5.83;;
4810;SDS011;2419;51.276;6.472;2024-01-30T13:17:36;8.77;;;5.97;;
4810;SDS011;2419;51.276;6.472;2024-01-30T13:20:04;9.80;;;5.53;;
4810;SDS011;2419;51.276;6.472;2024-01-30T13:22:37;10.17;;;5.83;;
4810;SDS011;2419;51.276;6.472;2024-01-30T13:25:06;11.83;;;5.90;;
4810;SDS011;2419;51.276;6.472;2024-01-30T13:27:36;12.10;;;5.50;;
4810;SDS011;2419;51.276;6.472;2024-01-30T13:30:06;9.33;;;5.67;;
4810;SDS011;2419;51.276;6.472;2024-01-30T13:32:36;12.10;;;7.13;;
4810;SDS011;2419;51.276;6.472;2024-01-30T13:35:05;12.77;;;7.00;;
4810;SDS011;2419;51.276;6.472;2024-01-30T13:37:33;8.47;;;5.10;;
4810;SDS011;2419;51.276;6.472;2024-01-30T13:40:02;10.83;;;6.00;;
4810;SDS011;2419;51.276;6.472;2024-01-30T13:42:38;9.50;;;5.70;;
4810;SDS011;2419;51.276;6.472;2024-01-30T13:45:06;8.60;;;5.50;;
4810;SDS011;2419;51.276;6.472;2024-01-30T13:47:36;11.80;;;5.53;;
4810;SDS011;2419;51.276;6.472;2024-01-30T13:50:05;10.67;;;5.57;;
4810;SDS011;2419;51.276;6.472;2024-01-30T13:52:34;13.40;;;5.57;;
4810;SDS011;2419;51.276;6.472;2024-01-30T13:55:10;11.70;;;5.43;;
4810;SDS011;2419;51.276;6.472;2024-01-30T13:57:40;12.47;;;5.33;;
4810;SDS011;2419;51.276;6.472;2024-01-30T14:00:08;7.77;;;5.23;;
4810;SDS011;2419;51.276;6.472;2024-01-30T14:02:42;8.63;;;5.33;;
4810;SDS011;2419;51.276;6.472;2024-01-30T14:05:10;10.63;;;5.37;;
4810;SDS011;2419;51.276;6.472;2024-01-30T14:07:38;14.83;;;5.40;;
4810;SDS011;2419;51.276;6.472;2024-01-30T14:10:07;9.57;;;5.67;;
4810;SDS011;2419;51.276;6.472;2024-01-30T14:12:41;9.00;;;5.87;;
4810;SDS011;2419;51.276;6.472;2024-01-30T14:15:11;12.73;;;5.60;;
4810;SDS011;2419;51.276;6.472;2024-01-30T14:17:53;9.13;;;4.60;;
4810;SDS011;2419;51.276;6.472;2024-01-30T14:20:22;7.73;;;5.17;;
4810;SDS011;2419;51.276;6.472;2024-01-30T14:22:51;10.00;;;5.13;;
4810;SDS011;2419;51.276;6.472;2024-01-30T14:25:19;12.17;;;5.53;;
4810;SDS011;2419;51.276;6.472;2024-01-30T14:27:49;10.80;;;6.07;;
4810;SDS011;2419;51.276;6.472;2024-01-30T14:30:18;8.90;;;4.97;;
4810;SDS011;2419;51.276;6.472;2024-01-30T14:32:47;8.80;;;4.93;;
4810;SDS011;2419;51.276;6.472;2024-01-30T14:35:15;12.87;;;5.00;;
4810;SDS011;2419;51.276;6.472;2024-01-30T14:37:43;8.50;;;4.30;;
4810;SDS011;2419;51.276;6.472;2024-01-30T14:40:11;10.23;;;4.20;;
4810;SDS011;2419;51.276;6.472;2024-01-30T14:42:40;5.10;;;3.17;;
4810;SDS011;2419;51.276;6.472;2024-01-30T14:45:09;8.67;;;3.87;;
4810;SDS011;2419;51.276;6.472;2024-01-30T14:47:38;13.93;;;3.50;;
4810;SDS011;2419;51.276;6.472;2024-01-30T14:50:09;5.50;;;3.30;;
4810;SDS011;2419;51.276;6.472;2024-01-30T14:52:37;7.63;;;3.80;;
4810;SDS011;2419;51.276;6.472;2024-01-30T14:55:07;5.27;;;3.57;;
4810;SDS011;2419;51.276;6.472;2024-01-30T14:57:36;4.73;;;3.00;;
4810;SDS011;2419;51.276;6.472;2024-01-30T15:00:05;5.60;;;2.87;;
4810;SDS011;2419;51.276;6.472;2024-01-30T15:02:35;3.73;;;2.70;;
4810;SDS011;2419;51.276;6.472;2024-01-30T15:05:03;5.63;;;2.50;;
4810;SDS011;2419;51.276;6.472;2024-01-30T15:07:32;5.37;;;2.00;;
4810;SDS011;2419;51.276;6.472;2024-01-30T15:10:06;3.50;;;2.07;;
4810;SDS011;2419;51.276;6.472;2024-01-30T15:12:36;4.57;;;2.13;;